sensor_id;sensor_type;location;lat;lon;timestamp;temperature;humidity
52295;DHT22;38243;53.212;6.574;2023-02-23T00:01:27;16.70;88.50
52295;DHT22;38243;53.212;6.574;2023-02-23T00:03:57;16.70;88.50
52295;DHT22;38243;53.212;6.574;2023-02-23T00:06:25;16.70;88.50
52295;DHT22;38243;53.212;6.574;2023-02-23T00:08:51;16.70;88.50
52295;DHT22;38243;53.212;6.574;2023-02-23T00:11:18;16.70;88.50
52295;DHT22;38243;53.212;6.574;2023-02-23T00:13:45;16.70;88.40
52295;DHT22;38243;53.212;6.574;2023-02-23T00:16:19;16.70;88.30
52295;DHT22;38243;53.212;6.574;2023-02-23T00:18:50;16.70;88.30
52295;DHT22;38243;53.212;6.574;2023-02-23T00:21:23;16.70;88.40
52295;DHT22;38243;53.212;6.574;2023-02-23T00:23:58;16.70;88.40
52295;DHT22;38243;53.212;6.574;2023-02-23T00:26:27;16.70;88.40
52295;DHT22;38243;53.212;6.574;2023-02-23T00:28:59;16.70;88.40
52295;DHT22;38243;53.212;6.574;2023-02-23T00:31:26;16.70;88.30
52295;DHT22;38243;53.212;6.574;2023-02-23T00:33:54;16.70;88.30
52295;DHT22;38243;53.212;6.574;2023-02-23T00:36:22;16.70;88.40
52295;DHT22;38243;53.212;6.574;2023-02-23T00:38:52;16.70;88.40
52295;DHT22;38243;53.212;6.574;2023-02-23T00:41:18;16.70;88.40
52295;DHT22;38243;53.212;6.574;2023-02-23T00:43:47;16.70;88.30
52295;DHT22;38243;53.212;6.574;2023-02-23T00:46:17;16.60;88.30
52295;DHT22;38243;53.212;6.574;2023-02-23T00:48:46;16.70;88.30
52295;DHT22;38243;53.212;6.574;2023-02-23T00:51:13;16.70;88.40
52295;DHT22;38243;53.212;6.574;2023-02-23T00:53:40;16.60;88.20
52295;DHT22;38243;53.212;6.574;2023-02-23T00:56:08;16.70;88.40
52295;DHT22;38243;53.212;6.574;2023-02-23T00:58:34;16.70;88.40
52295;DHT22;38243;53.212;6.574;2023-02-23T01:01:00;16.60;88.30
52295;DHT22;38243;53.212;6.574;2023-02-23T01:03:27;16.70;88.20
52295;DHT22;38243;53.212;6.574;2023-02-23T01:05:54;16.70;88.30
52295;DHT22;38243;53.212;6.574;2023-02-23T01:08:23;16.70;88.20
52295;DHT22;38243;53.212;6.574;2023-02-23T01:10:49;16.70;88.30
52295;DHT22;38243;53.212;6.574;2023-02-23T01:13:19;16.70;88.20
52295;DHT22;38243;53.212;6.574;2023-02-23T01:15:46;16.70;88.10
52295;DHT22;38243;53.212;6.574;2023-02-23T01:18:16;16.70;88.10
52295;DHT22;38243;53.212;6.574;2023-02-23T01:20:43;16.60;88.10
52295;DHT22;38243;53.212;6.574;2023-02-23T01:23:13;16.70;88.20
52295;DHT22;38243;53.212;6.574;2023-02-23T01:25:43;16.70;88.10
52295;DHT22;38243;53.212;6.574;2023-02-23T01:28:11;16.70;88.10
52295;DHT22;38243;53.212;6.574;2023-02-23T01:30:38;16.70;88.20
52295;DHT22;38243;53.212;6.574;2023-02-23T01:33:05;16.70;88.20
52295;DHT22;38243;53.212;6.574;2023-02-23T01:35:31;16.70;88.20
52295;DHT22;38243;53.212;6.574;2023-02-23T01:37:57;16.70;88.20
52295;DHT22;38243;53.212;6.574;2023-02-23T01:40:25;16.70;88.20
52295;DHT22;38243;53.212;6.574;2023-02-23T01:47:55;16.70;88.20
52295;DHT22;38243;53.212;6.574;2023-02-23T01:50:26;16.70;88.20
52295;DHT22;38243;53.212;6.574;2023-02-23T01:52:52;16.60;88.00
52295;DHT22;38243;53.212;6.574;2023-02-23T01:55:20;16.70;88.20
52295;DHT22;38243;53.212;6.574;2023-02-23T01:58:00;16.70;88.00
52295;DHT22;38243;53.212;6.574;2023-02-23T02:00:28;16.70;88.20
52295;DHT22;38243;53.212;6.574;2023-02-23T02:02:56;16.60;88.00
52295;DHT22;38243;53.212;6.574;2023-02-23T02:05:23;16.70;88.10
52295;DHT22;38243;53.212;6.574;2023-02-23T02:07:50;16.70;88.00
52295;DHT22;38243;53.212;6.574;2023-02-23T02:10:25;16.60;88.00
52295;DHT22;38243;53.212;6.574;2023-02-23T02:13:15;16.70;88.00
52295;DHT22;38243;53.212;6.574;2023-02-23T02:21:59;16.70;87.90
52295;DHT22;38243;53.212;6.574;2023-02-23T02:29:51;16.60;87.90
52295;DHT22;38243;53.212;6.574;2023-02-23T02:38:07;16.70;87.90
52295;DHT22;38243;53.212;6.574;2023-02-23T02:43:23;16.60;87.80
52295;DHT22;38243;53.212;6.574;2023-02-23T02:45:58;16.60;87.80
52295;DHT22;38243;53.212;6.574;2023-02-23T02:56:24;16.60;87.90
52295;DHT22;38243;53.212;6.574;2023-02-23T02:58:52;16.60;87.80
52295;DHT22;38243;53.212;6.574;2023-02-23T03:01:18;16.70;87.80
52295;DHT22;38243;53.212;6.574;2023-02-23T03:04:21;16.60;87.80
52295;DHT22;38243;53.212;6.574;2023-02-23T03:07:15;16.60;87.80
52295;DHT22;38243;53.212;6.574;2023-02-23T03:13:00;16.60;87.80
52295;DHT22;38243;53.212;6.574;2023-02-23T03:22:13;16.60;87.80
52295;DHT22;38243;53.212;6.574;2023-02-23T03:25:23;16.60;87.80
52295;DHT22;38243;53.212;6.574;2023-02-23T03:28:15;16.60;87.80
52295;DHT22;38243;53.212;6.574;2023-02-23T03:34:13;16.60;87.80
52295;DHT22;38243;53.212;6.574;2023-02-23T03:37:24;16.60;87.80
52295;DHT22;38243;53.212;6.574;2023-02-23T03:40:15;16.60;87.80
52295;DHT22;38243;53.212;6.574;2023-02-23T03:43:04;16.60;87.80
52295;DHT22;38243;53.212;6.574;2023-02-23T03:45:51;16.60;87.80
52295;DHT22;38243;53.212;6.574;2023-02-23T03:48:37;16.60;87.80
52295;DHT22;38243;53.212;6.574;2023-02-23T03:51:23;16.60;87.70
52295;DHT22;38243;53.212;6.574;2023-02-23T03:54:18;16.60;87.80
52295;DHT22;38243;53.212;6.574;2023-02-23T03:57:07;16.60;87.90
52295;DHT22;38243;53.212;6.574;2023-02-23T03:59:56;16.60;87.80
52295;DHT22;38243;53.212;6.574;2023-02-23T04:02:43;16.60;87.70
52295;DHT22;38243;53.212;6.574;2023-02-23T04:05:29;16.60;87.80
52295;DHT22;38243;53.212;6.574;2023-02-23T04:08:17;16.60;87.80
52295;DHT22;38243;53.212;6.574;2023-02-23T04:11:32;16.60;87.90
52295;DHT22;38243;53.212;6.574;2023-02-23T04:14:24;16.60;87.80
52295;DHT22;38243;53.212;6.574;2023-02-23T04:16:51;16.60;88.50
52295;DHT22;38243;53.212;6.574;2023-02-23T04:19:17;16.60;87.90
52295;DHT22;38243;53.212;6.574;2023-02-23T04:21:43;16.60;87.90
52295;DHT22;38243;53.212;6.574;2023-02-23T04:24:09;16.60;87.90
52295;DHT22;38243;53.212;6.574;2023-02-23T04:26:35;16.60;87.90
52295;DHT22;38243;53.212;6.574;2023-02-23T04:29:01;16.60;88.00
52295;DHT22;38243;53.212;6.574;2023-02-23T04:31:27;16.60;88.00
52295;DHT22;38243;53.212;6.574;2023-02-23T04:33:52;16.60;87.70
52295;DHT22;38243;53.212;6.574;2023-02-23T04:36:18;16.60;88.40
52295;DHT22;38243;53.212;6.574;2023-02-23T04:38:44;16.60;87.80
52295;DHT22;38243;53.212;6.574;2023-02-23T04:41:10;16.60;87.60
52295;DHT22;38243;53.212;6.574;2023-02-23T04:43:36;16.60;87.70
52295;DHT22;38243;53.212;6.574;2023-02-23T04:46:01;16.60;87.80
52295;DHT22;38243;53.212;6.574;2023-02-23T04:48:27;16.60;87.90
52295;DHT22;38243;53.212;6.574;2023-02-23T04:50:53;16.60;87.80
52295;DHT22;38243;53.212;6.574;2023-02-23T04:53:19;16.60;87.80
52295;DHT22;38243;53.212;6.574;2023-02-23T04:55:45;16.60;87.90
52295;DHT22;38243;53.212;6.574;2023-02-23T04:58:12;16.60;87.90
52295;DHT22;38243;53.212;6.574;2023-02-23T05:00:38;16.60;87.90
52295;DHT22;38243;53.212;6.574;2023-02-23T05:03:04;16.60;87.90
52295;DHT22;38243;53.212;6.574;2023-02-23T05:05:30;16.60;87.90
52295;DHT22;38243;53.212;6.574;2023-02-23T05:07:56;16.60;88.00
52295;DHT22;38243;53.212;6.574;2023-02-23T05:10:22;16.60;87.90
52295;DHT22;38243;53.212;6.574;2023-02-23T05:12:48;16.60;87.90
52295;DHT22;38243;53.212;6.574;2023-02-23T05:15:14;16.60;88.50
52295;DHT22;38243;53.212;6.574;2023-02-23T05:17:40;16.60;87.90
52295;DHT22;38243;53.212;6.574;2023-02-23T05:20:10;16.60;87.90
52295;DHT22;38243;53.212;6.574;2023-02-23T05:22:37;16.50;87.90
52295;DHT22;38243;53.212;6.574;2023-02-23T05:25:04;16.60;88.00
52295;DHT22;38243;53.212;6.574;2023-02-23T05:27:30;16.60;88.00
52295;DHT22;38243;53.212;6.574;2023-02-23T05:29:57;16.60;88.00
52295;DHT22;38243;53.212;6.574;2023-02-23T05:32:22;16.60;88.00
52295;DHT22;38243;53.212;6.574;2023-02-23T05:34:48;16.60;87.90
52295;DHT22;38243;53.212;6.574;2023-02-23T05:37:14;16.60;87.90
52295;DHT22;38243;53.212;6.574;2023-02-23T05:39:40;16.50;87.90
52295;DHT22;38243;53.212;6.574;2023-02-23T05:42:05;16.60;88.00
52295;DHT22;38243;53.212;6.574;2023-02-23T05:44:31;16.60;87.90
52295;DHT22;38243;53.212;6.574;2023-02-23T05:46:57;16.60;87.90
52295;DHT22;38243;53.212;6.574;2023-02-23T05:49:22;16.50;87.80
52295;DHT22;38243;53.212;6.574;2023-02-23T05:51:48;16.60;87.90
52295;DHT22;38243;53.212;6.574;2023-02-23T05:54:14;16.60;87.90
52295;DHT22;38243;53.212;6.574;2023-02-23T05:56:42;16.60;88.00
52295;DHT22;38243;53.212;6.574;2023-02-23T05:59:08;16.60;87.90
52295;DHT22;38243;53.212;6.574;2023-02-23T06:01:34;16.50;87.90
52295;DHT22;38243;53.212;6.574;2023-02-23T06:04:00;16.60;87.80
52295;DHT22;38243;53.212;6.574;2023-02-23T06:06:25;16.60;87.80
52295;DHT22;38243;53.212;6.574;2023-02-23T06:08:53;16.60;87.90
52295;DHT22;38243;53.212;6.574;2023-02-23T06:11:19;16.60;87.80
52295;DHT22;38243;53.212;6.574;2023-02-23T06:13:45;16.60;87.90
52295;DHT22;38243;53.212;6.574;2023-02-23T06:16:10;16.50;87.80
52295;DHT22;38243;53.212;6.574;2023-02-23T06:18:36;16.60;87.90
52295;DHT22;38243;53.212;6.574;2023-02-23T06:21:02;16.60;87.90
52295;DHT22;38243;53.212;6.574;2023-02-23T06:23:29;16.60;87.90
52295;DHT22;38243;53.212;6.574;2023-02-23T06:25:55;16.60;87.80
52295;DHT22;38243;53.212;6.574;2023-02-23T06:28:21;16.60;87.90
52295;DHT22;38243;53.212;6.574;2023-02-23T06:30:46;17.50;88.30
52295;DHT22;38243;53.212;6.574;2023-02-23T06:33:13;16.60;87.90
52295;DHT22;38243;53.212;6.574;2023-02-23T06:35:38;16.60;87.90
52295;DHT22;38243;53.212;6.574;2023-02-23T06:38:04;16.60;87.90
52295;DHT22;38243;53.212;6.574;2023-02-23T06:40:31;16.60;87.90
52295;DHT22;38243;53.212;6.574;2023-02-23T06:42:57;16.60;87.80
52295;DHT22;38243;53.212;6.574;2023-02-23T06:45:22;16.60;87.80
52295;DHT22;38243;53.212;6.574;2023-02-23T06:47:48;16.60;87.80
52295;DHT22;38243;53.212;6.574;2023-02-23T06:50:14;16.50;87.80
52295;DHT22;38243;53.212;6.574;2023-02-23T06:52:40;16.60;88.00
52295;DHT22;38243;53.212;6.574;2023-02-23T06:55:07;16.60;88.10
52295;DHT22;38243;53.212;6.574;2023-02-23T06:57:33;16.60;88.60
52295;DHT22;38243;53.212;6.574;2023-02-23T06:59:59;16.60;88.30
52295;DHT22;38243;53.212;6.574;2023-02-23T07:02:26;16.60;88.90
52295;DHT22;38243;53.212;6.574;2023-02-23T07:04:52;16.50;89.70
52295;DHT22;38243;53.212;6.574;2023-02-23T07:07:17;16.60;89.90
52295;DHT22;38243;53.212;6.574;2023-02-23T07:09:43;16.60;90.20
52295;DHT22;38243;53.212;6.574;2023-02-23T07:12:09;16.60;90.20
52295;DHT22;38243;53.212;6.574;2023-02-23T07:14:35;16.60;90.30
52295;DHT22;38243;53.212;6.574;2023-02-23T07:17:03;16.60;90.40
52295;DHT22;38243;53.212;6.574;2023-02-23T07:19:29;16.60;90.40
52295;DHT22;38243;53.212;6.574;2023-02-23T07:21:55;16.60;90.30
52295;DHT22;38243;53.212;6.574;2023-02-23T07:24:24;16.60;90.20
52295;DHT22;38243;53.212;6.574;2023-02-23T07:26:50;16.60;90.10
52295;DHT22;38243;53.212;6.574;2023-02-23T07:29:16;16.60;90.00
52295;DHT22;38243;53.212;6.574;2023-02-23T07:31:46;16.60;90.00
52295;DHT22;38243;53.212;6.574;2023-02-23T07:34:14;16.60;89.90
52295;DHT22;38243;53.212;6.574;2023-02-23T07:36:40;16.60;89.80
52295;DHT22;38243;53.212;6.574;2023-02-23T07:39:06;16.60;89.70
52295;DHT22;38243;53.212;6.574;2023-02-23T07:41:32;16.60;89.70
52295;DHT22;38243;53.212;6.574;2023-02-23T07:43:58;16.60;89.50
52295;DHT22;38243;53.212;6.574;2023-02-23T07:46:25;16.50;89.40
52295;DHT22;38243;53.212;6.574;2023-02-23T07:48:51;16.60;89.40
52295;DHT22;38243;53.212;6.574;2023-02-23T07:51:17;16.60;89.40
52295;DHT22;38243;53.212;6.574;2023-02-23T07:53:43;16.60;89.30
52295;DHT22;38243;53.212;6.574;2023-02-23T07:56:10;16.60;89.30
52295;DHT22;38243;53.212;6.574;2023-02-23T07:58:41;16.60;89.20
52295;DHT22;38243;53.212;6.574;2023-02-23T08:01:07;16.60;89.10
52295;DHT22;38243;53.212;6.574;2023-02-23T08:03:34;16.60;89.10
52295;DHT22;38243;53.212;6.574;2023-02-23T08:05:59;16.50;89.00
52295;DHT22;38243;53.212;6.574;2023-02-23T08:08:26;16.60;89.00
52295;DHT22;38243;53.212;6.574;2023-02-23T08:11:02;16.50;88.90
52295;DHT22;38243;53.212;6.574;2023-02-23T08:13:28;16.50;88.80
52295;DHT22;38243;53.212;6.574;2023-02-23T08:15:56;16.60;88.90
52295;DHT22;38243;53.212;6.574;2023-02-23T08:18:22;16.60;88.90
52295;DHT22;38243;53.212;6.574;2023-02-23T08:20:48;16.50;88.70
52295;DHT22;38243;53.212;6.574;2023-02-23T08:23:14;16.60;88.80
52295;DHT22;38243;53.212;6.574;2023-02-23T08:25:42;16.50;88.70
52295;DHT22;38243;53.212;6.574;2023-02-23T08:28:08;16.50;88.80
52295;DHT22;38243;53.212;6.574;2023-02-23T08:30:34;16.60;88.70
52295;DHT22;38243;53.212;6.574;2023-02-23T08:33:00;16.50;88.60
52295;DHT22;38243;53.212;6.574;2023-02-23T08:35:26;16.50;88.60
52295;DHT22;38243;53.212;6.574;2023-02-23T08:37:52;16.50;88.60
52295;DHT22;38243;53.212;6.574;2023-02-23T08:40:18;16.60;89.20
52295;DHT22;38243;53.212;6.574;2023-02-23T08:42:45;16.60;88.60
52295;DHT22;38243;53.212;6.574;2023-02-23T08:45:14;16.50;88.40
52295;DHT22;38243;53.212;6.574;2023-02-23T08:47:40;16.60;88.50
52295;DHT22;38243;53.212;6.574;2023-02-23T08:50:06;16.60;88.50
52295;DHT22;38243;53.212;6.574;2023-02-23T08:52:36;16.60;88.40
52295;DHT22;38243;53.212;6.574;2023-02-23T08:55:02;16.50;88.30
52295;DHT22;38243;53.212;6.574;2023-02-23T08:57:28;16.50;88.30
52295;DHT22;38243;53.212;6.574;2023-02-23T08:59:53;16.50;88.40
52295;DHT22;38243;53.212;6.574;2023-02-23T09:02:19;16.60;88.60
52295;DHT22;38243;53.212;6.574;2023-02-23T09:04:45;16.60;88.50
52295;DHT22;38243;53.212;6.574;2023-02-23T09:07:14;16.60;88.50
52295;DHT22;38243;53.212;6.574;2023-02-23T09:09:41;16.60;88.40
52295;DHT22;38243;53.212;6.574;2023-02-23T09:12:07;16.60;88.30
52295;DHT22;38243;53.212;6.574;2023-02-23T09:14:32;16.60;88.20
52295;DHT22;38243;53.212;6.574;2023-02-23T09:16:58;16.60;88.20
52295;DHT22;38243;53.212;6.574;2023-02-23T09:19:24;16.60;88.10
52295;DHT22;38243;53.212;6.574;2023-02-23T09:21:52;16.60;88.20
52295;DHT22;38243;53.212;6.574;2023-02-23T09:24:21;16.60;88.20
52295;DHT22;38243;53.212;6.574;2023-02-23T09:26:47;16.60;88.20
52295;DHT22;38243;53.212;6.574;2023-02-23T09:29:13;16.60;88.20
52295;DHT22;38243;53.212;6.574;2023-02-23T09:31:39;16.60;88.10
52295;DHT22;38243;53.212;6.574;2023-02-23T09:34:07;16.70;88.30
52295;DHT22;38243;53.212;6.574;2023-02-23T09:36:34;16.70;88.30
52295;DHT22;38243;53.212;6.574;2023-02-23T09:38:59;16.70;88.30
52295;DHT22;38243;53.212;6.574;2023-02-23T09:44:01;16.70;88.30
52295;DHT22;38243;53.212;6.574;2023-02-23T09:46:41;16.70;88.30
52295;DHT22;38243;53.212;6.574;2023-02-23T09:49:17;16.70;88.50
52295;DHT22;38243;53.212;6.574;2023-02-23T09:51:48;16.70;88.50
52295;DHT22;38243;53.212;6.574;2023-02-23T09:54:20;16.80;88.40
52295;DHT22;38243;53.212;6.574;2023-02-23T09:56:48;16.80;88.50
52295;DHT22;38243;53.212;6.574;2023-02-23T09:59:17;16.70;88.40
52295;DHT22;38243;53.212;6.574;2023-02-23T10:10:02;16.70;88.40
52295;DHT22;38243;53.212;6.574;2023-02-23T10:13:08;16.80;88.50
52295;DHT22;38243;53.212;6.574;2023-02-23T10:24:04;16.80;88.50
52295;DHT22;38243;53.212;6.574;2023-02-23T10:26:52;16.80;88.40
52295;DHT22;38243;53.212;6.574;2023-02-23T10:29:29;16.80;89.00
52295;DHT22;38243;53.212;6.574;2023-02-23T10:32:04;16.80;88.40
52295;DHT22;38243;53.212;6.574;2023-02-23T10:34:31;16.80;88.40
52295;DHT22;38243;53.212;6.574;2023-02-23T10:37:02;16.80;88.30
52295;DHT22;38243;53.212;6.574;2023-02-23T10:39:30;16.80;88.30
52295;DHT22;38243;53.212;6.574;2023-02-23T10:42:02;16.80;88.30
52295;DHT22;38243;53.212;6.574;2023-02-23T10:44:29;16.80;88.30
52295;DHT22;38243;53.212;6.574;2023-02-23T10:46:59;16.80;88.30
52295;DHT22;38243;53.212;6.574;2023-02-23T10:49:50;16.80;88.30
52295;DHT22;38243;53.212;6.574;2023-02-23T10:52:33;16.80;88.30
52295;DHT22;38243;53.212;6.574;2023-02-23T10:55:04;16.80;88.30
52295;DHT22;38243;53.212;6.574;2023-02-23T10:57:33;16.80;88.30
52295;DHT22;38243;53.212;6.574;2023-02-23T11:02:31;16.80;88.20
52295;DHT22;38243;53.212;6.574;2023-02-23T11:04:59;16.80;88.20
52295;DHT22;38243;53.212;6.574;2023-02-23T11:07:28;16.80;88.10
52295;DHT22;38243;53.212;6.574;2023-02-23T11:09:55;16.80;88.10
52295;DHT22;38243;53.212;6.574;2023-02-23T11:12:38;16.80;88.10
52295;DHT22;38243;53.212;6.574;2023-02-23T11:17:45;16.80;88.00
52295;DHT22;38243;53.212;6.574;2023-02-23T11:22:42;16.80;88.00
52295;DHT22;38243;53.212;6.574;2023-02-23T11:25:37;16.80;87.90
52295;DHT22;38243;53.212;6.574;2023-02-23T11:28:25;16.90;87.80
52295;DHT22;38243;53.212;6.574;2023-02-23T11:31:03;16.80;87.70
52295;DHT22;38243;53.212;6.574;2023-02-23T11:33:33;16.80;87.60
52295;DHT22;38243;53.212;6.574;2023-02-23T11:38:38;16.80;87.60
52295;DHT22;38243;53.212;6.574;2023-02-23T11:41:16;16.80;87.60
52295;DHT22;38243;53.212;6.574;2023-02-23T11:43:50;16.80;87.60
52295;DHT22;38243;53.212;6.574;2023-02-23T11:46:18;16.80;87.60
52295;DHT22;38243;53.212;6.574;2023-02-23T11:48:59;16.80;87.60
52295;DHT22;38243;53.212;6.574;2023-02-23T11:51:29;16.80;87.60
52295;DHT22;38243;53.212;6.574;2023-02-23T11:53:56;16.80;87.50
52295;DHT22;38243;53.212;6.574;2023-02-23T11:56:23;16.80;87.60
52295;DHT22;38243;53.212;6.574;2023-02-23T11:58:56;16.90;87.60
52295;DHT22;38243;53.212;6.574;2023-02-23T12:01:39;16.80;87.60
52295;DHT22;38243;53.212;6.574;2023-02-23T12:04:24;16.80;88.30
52295;DHT22;38243;53.212;6.574;2023-02-23T12:06:56;16.90;88.20
52295;DHT22;38243;53.212;6.574;2023-02-23T12:09:40;16.90;89.00
52295;DHT22;38243;53.212;6.574;2023-02-23T12:12:17;16.90;89.40
52295;DHT22;38243;53.212;6.574;2023-02-23T12:17:26;16.90;89.80
52295;DHT22;38243;53.212;6.574;2023-02-23T12:20:00;16.90;89.60
52295;DHT22;38243;53.212;6.574;2023-02-23T12:22:31;16.90;89.40
52295;DHT22;38243;53.212;6.574;2023-02-23T12:25:03;16.90;89.20
52295;DHT22;38243;53.212;6.574;2023-02-23T12:27:39;16.90;89.00
52295;DHT22;38243;53.212;6.574;2023-02-23T12:32:45;16.90;88.80
52295;DHT22;38243;53.212;6.574;2023-02-23T12:40:41;16.90;88.20
52295;DHT22;38243;53.212;6.574;2023-02-23T12:43:38;16.80;88.10
52295;DHT22;38243;53.212;6.574;2023-02-23T12:46:15;16.90;88.10
52295;DHT22;38243;53.212;6.574;2023-02-23T12:51:32;16.90;88.00
52295;DHT22;38243;53.212;6.574;2023-02-23T12:54:00;16.90;87.90
52295;DHT22;38243;53.212;6.574;2023-02-23T13:02:00;16.80;87.80
52295;DHT22;38243;53.212;6.574;2023-02-23T13:20:55;16.80;87.50
52295;DHT22;38243;53.212;6.574;2023-02-23T13:23:31;16.80;87.50
52295;DHT22;38243;53.212;6.574;2023-02-23T13:31:20;16.80;87.40
52295;DHT22;38243;53.212;6.574;2023-02-23T13:33:47;16.80;87.30
52295;DHT22;38243;53.212;6.574;2023-02-23T13:36:14;16.80;87.80
52295;DHT22;38243;53.212;6.574;2023-02-23T13:41:32;16.80;87.10
52295;DHT22;38243;53.212;6.574;2023-02-23T13:50:02;16.80;87.00
52295;DHT22;38243;53.212;6.574;2023-02-23T13:52:31;16.80;86.80
52295;DHT22;38243;53.212;6.574;2023-02-23T13:54:59;16.80;86.80
52295;DHT22;38243;53.212;6.574;2023-02-23T13:57:31;16.80;86.80
52295;DHT22;38243;53.212;6.574;2023-02-23T13:59:59;16.80;86.70
52295;DHT22;38243;53.212;6.574;2023-02-23T14:05:18;16.80;86.70
52295;DHT22;38243;53.212;6.574;2023-02-23T14:07:50;16.80;86.70
52295;DHT22;38243;53.212;6.574;2023-02-23T14:10:23;16.80;87.00
52295;DHT22;38243;53.212;6.574;2023-02-23T14:18:04;16.80;88.00
52295;DHT22;38243;53.212;6.574;2023-02-23T14:21:16;16.80;88.10
52295;DHT22;38243;53.212;6.574;2023-02-23T14:31:37;16.80;87.70
52295;DHT22;38243;53.212;6.574;2023-02-23T14:34:08;16.80;87.60
52295;DHT22;38243;53.212;6.574;2023-02-23T14:36:41;16.80;87.40
52295;DHT22;38243;53.212;6.574;2023-02-23T14:39:15;16.80;87.40
52295;DHT22;38243;53.212;6.574;2023-02-23T14:44:31;16.80;87.30
52295;DHT22;38243;53.212;6.574;2023-02-23T14:47:11;16.90;87.30
52295;DHT22;38243;53.212;6.574;2023-02-23T14:49:42;16.80;87.10
52295;DHT22;38243;53.212;6.574;2023-02-23T14:52:16;16.80;87.10
52295;DHT22;38243;53.212;6.574;2023-02-23T14:54:44;16.90;87.10
52295;DHT22;38243;53.212;6.574;2023-02-23T14:57:24;16.90;87.10
52295;DHT22;38243;53.212;6.574;2023-02-23T14:59:57;16.90;87.10
52295;DHT22;38243;53.212;6.574;2023-02-23T15:02:25;16.80;86.80
52295;DHT22;38243;53.212;6.574;2023-02-23T15:04:51;16.80;86.80
52295;DHT22;38243;53.212;6.574;2023-02-23T15:07:36;16.90;87.40
52295;DHT22;38243;53.212;6.574;2023-02-23T15:10:09;16.90;86.90
52295;DHT22;38243;53.212;6.574;2023-02-23T15:12:37;16.90;86.60
52295;DHT22;38243;53.212;6.574;2023-02-23T15:15:10;16.80;86.60
52295;DHT22;38243;53.212;6.574;2023-02-23T15:17:42;16.80;86.70
52295;DHT22;38243;53.212;6.574;2023-02-23T15:20:21;16.80;86.60
52295;DHT22;38243;53.212;6.574;2023-02-23T15:22:53;16.90;86.50
52295;DHT22;38243;53.212;6.574;2023-02-23T15:25:33;16.90;86.40
52295;DHT22;38243;53.212;6.574;2023-02-23T15:28:10;16.80;86.20
52295;DHT22;38243;53.212;6.574;2023-02-23T15:30:47;16.90;86.30
52295;DHT22;38243;53.212;6.574;2023-02-23T15:33:16;16.90;86.20
52295;DHT22;38243;53.212;6.574;2023-02-23T15:38:46;16.80;86.20
52295;DHT22;38243;53.212;6.574;2023-02-23T15:41:31;16.90;86.20
52295;DHT22;38243;53.212;6.574;2023-02-23T15:44:22;16.80;86.10
52295;DHT22;38243;53.212;6.574;2023-02-23T15:46:56;16.90;86.10
52295;DHT22;38243;53.212;6.574;2023-02-23T15:49:25;16.90;86.10
52295;DHT22;38243;53.212;6.574;2023-02-23T15:52:01;16.80;86.00
52295;DHT22;38243;53.212;6.574;2023-02-23T15:54:57;16.80;85.80
52295;DHT22;38243;53.212;6.574;2023-02-23T15:57:51;16.90;85.90
52295;DHT22;38243;53.212;6.574;2023-02-23T16:00:36;16.80;85.90
52295;DHT22;38243;53.212;6.574;2023-02-23T16:03:05;16.80;85.60
52295;DHT22;38243;53.212;6.574;2023-02-23T16:05:33;16.80;85.60
52295;DHT22;38243;53.212;6.574;2023-02-23T16:08:17;16.80;85.60
52295;DHT22;38243;53.212;6.574;2023-02-23T16:10:48;16.80;85.50
52295;DHT22;38243;53.212;6.574;2023-02-23T16:13:19;16.80;85.40
52295;DHT22;38243;53.212;6.574;2023-02-23T16:15:46;16.80;85.50
52295;DHT22;38243;53.212;6.574;2023-02-23T16:18:33;16.90;85.50
52295;DHT22;38243;53.212;6.574;2023-02-23T16:20:59;16.80;85.70
52295;DHT22;38243;53.212;6.574;2023-02-23T16:26:10;16.80;85.60
52295;DHT22;38243;53.212;6.574;2023-02-23T16:28:40;16.80;86.00
52295;DHT22;38243;53.212;6.574;2023-02-23T16:31:08;16.80;86.10
52295;DHT22;38243;53.212;6.574;2023-02-23T16:33:55;16.80;86.00
52295;DHT22;38243;53.212;6.574;2023-02-23T16:36:36;16.80;85.90
52295;DHT22;38243;53.212;6.574;2023-02-23T16:39:13;16.80;85.90
52295;DHT22;38243;53.212;6.574;2023-02-23T16:41:42;16.80;85.70
52295;DHT22;38243;53.212;6.574;2023-02-23T16:44:14;16.80;85.80
52295;DHT22;38243;53.212;6.574;2023-02-23T16:49:28;16.80;86.60
52295;DHT22;38243;53.212;6.574;2023-02-23T16:51:58;16.80;86.10
52295;DHT22;38243;53.212;6.574;2023-02-23T16:54:24;16.80;86.10
52295;DHT22;38243;53.212;6.574;2023-02-23T16:56:50;16.70;86.00
52295;DHT22;38243;53.212;6.574;2023-02-23T16:59:20;16.80;86.00
52295;DHT22;38243;53.212;6.574;2023-02-23T17:01:47;16.80;86.00
52295;DHT22;38243;53.212;6.574;2023-02-23T17:04:19;16.70;86.00
52295;DHT22;38243;53.212;6.574;2023-02-23T17:06:45;16.80;86.10
52295;DHT22;38243;53.212;6.574;2023-02-23T17:09:12;16.80;86.10
52295;DHT22;38243;53.212;6.574;2023-02-23T17:11:40;16.70;86.00
52295;DHT22;38243;53.212;6.574;2023-02-23T17:14:07;16.80;86.60
52295;DHT22;38243;53.212;6.574;2023-02-23T17:16:32;16.70;85.70
52295;DHT22;38243;53.212;6.574;2023-02-23T17:18:58;16.70;85.80
52295;DHT22;38243;53.212;6.574;2023-02-23T17:21:26;16.70;85.90
52295;DHT22;38243;53.212;6.574;2023-02-23T17:23:52;16.70;85.70
52295;DHT22;38243;53.212;6.574;2023-02-23T17:26:23;16.70;85.60
52295;DHT22;38243;53.212;6.574;2023-02-23T17:28:50;16.70;85.50
52295;DHT22;38243;53.212;6.574;2023-02-23T17:31:18;16.70;85.50
52295;DHT22;38243;53.212;6.574;2023-02-23T17:33:44;16.70;85.60
52295;DHT22;38243;53.212;6.574;2023-02-23T17:36:13;16.70;85.60
52295;DHT22;38243;53.212;6.574;2023-02-23T17:38:40;16.70;85.50
52295;DHT22;38243;53.212;6.574;2023-02-23T17:41:14;16.80;85.70
52295;DHT22;38243;53.212;6.574;2023-02-23T17:43:40;16.70;85.80
52295;DHT22;38243;53.212;6.574;2023-02-23T17:46:06;16.70;85.90
52295;DHT22;38243;53.212;6.574;2023-02-23T17:48:32;16.70;85.90
52295;DHT22;38243;53.212;6.574;2023-02-23T17:51:03;16.70;85.90
52295;DHT22;38243;53.212;6.574;2023-02-23T17:53:30;16.70;85.70
52295;DHT22;38243;53.212;6.574;2023-02-23T17:55:56;16.70;85.80
52295;DHT22;38243;53.212;6.574;2023-02-23T17:58:23;16.70;86.00
52295;DHT22;38243;53.212;6.574;2023-02-23T18:00:54;16.70;86.00
52295;DHT22;38243;53.212;6.574;2023-02-23T18:03:20;16.70;85.70
52295;DHT22;38243;53.212;6.574;2023-02-23T18:05:45;16.70;85.60
52295;DHT22;38243;53.212;6.574;2023-02-23T18:08:11;16.70;85.70
52295;DHT22;38243;53.212;6.574;2023-02-23T18:10:38;16.70;85.70
52295;DHT22;38243;53.212;6.574;2023-02-23T18:13:04;16.70;85.80
52295;DHT22;38243;53.212;6.574;2023-02-23T18:15:31;16.70;86.00
52295;DHT22;38243;53.212;6.574;2023-02-23T18:17:59;16.70;86.00
52295;DHT22;38243;53.212;6.574;2023-02-23T18:20:28;16.70;86.10
52295;DHT22;38243;53.212;6.574;2023-02-23T18:22:54;16.70;86.00
52295;DHT22;38243;53.212;6.574;2023-02-23T18:25:29;16.70;86.00